PST,Max TemperatureF,Mean TemperatureF,Min TemperatureF,Max Dew PointF,MeanDew PointF,Min DewpointF,Max Humidity, Mean Humidity, Min Humidity, Max Sea Level PressureIn, Mean Sea Level PressureIn, Min Sea Level PressureIn, Max VisibilityMiles, Mean VisibilityMiles, Min VisibilityMiles, Max Wind SpeedMPH, Mean Wind SpeedMPH, Max Gust SpeedMPH,PrecipitationIn, CloudCover, Events, WindDirDegrees
2012-11-1,72,67,61,54,53,51,78,64,49,30.03,29.99,29.94,10,6,3,8,1,41,0.00,4,,196
2012-11-2,75,66,56,54,52,50,80,62,43,30.01,29.97,29.91,10,8,5,9,3,25,0.00,3,,56
2012-11-3,84,69,54,56,52,47,83,56,28,30.04,30.00,29.95,10,6,3,7,1,15,0.00,0,,275
2012-11-4,95,75,54,53,42,28,86,48,10,30.06,30.02,29.97,20,9,5,8,1,22,0.00,0,,292
2012-11-5,96,77,57,47,40,29,57,34,10,30.05,30.01,29.96,10,10,10,8,2,13,0.00,0,,172
2012-11-6,84,70,56,61,52,38,62,41,20,30.08,30.04,29.99,10,8,2,9,2,13,0.00,2,,200
2012-11-7,76,70,63,58,56,54,84,67,49,30.07,30.01,29.94,10,5,2,9,2,43,0.00,4,,192
2012-11-8,70,66,62,58,55,51,78,69,59,30.04,29.92,29.88,10,9,2,15,4,24,0.04,8,Rain,213
2012-11-9,67,63,58,49,44,37,72,53,34,29.94,29.90,29.86,10,10,10,15,5,22,0.00,3,,243
2012-11-10,67,56,45,44,36,26,82,54,26,30.15,30.04,29.94,10,10,10,17,3,25,0.00,0,,290
2012-11-11,71,57,42,35,28,16,70,43,15,30.29,30.23,30.15,10,10,10,10,2,15,0.00,0,,130
2012-11-12,80,64,47,30,18,4,42,24,5,30.24,30.17,30.09,10,10,10,15,5,22,0.00,0,,41
2012-11-13,87,66,45,40,30,14,58,33,7,30.11,30.04,29.98,10,10,10,7,1,30,0.00,0,,232
2012-11-14,78,64,50,53,41,30,68,45,22,30.06,30.02,29.98,10,10,8,8,2,16,0.00,0,,213
2012-11-15,71,63,54,56,47,37,77,54,31,30.10,30.06,30.02,10,9,6,8,2,39,0.00,2,Rain,181
2012-11-16,75,67,58,57,50,39,78,54,29,30.11,30.06,30.00,10,9,7,14,2,,0.04,8,Rain,169
2012-11-17,73,67,60,61,58,55,90,74,57,30.10,30.06,30.03,10,8,2,10,4,14,0.06,7,Rain,152
2012-11-18,73,68,62,59,56,51,90,70,49,30.18,30.11,30.06,10,9,4,9,1,,T,5,,255
2012-11-19,74,63,52,54,51,48,89,67,44,30.24,30.18,30.14,10,9,6,9,2,17,0.00,0,,250
2012-11-20,76,63,50,53,49,46,86,62,38,30.15,30.09,30.02,10,8,5,9,1,22,0.00,0,,280
2012-11-21,72,64,55,55,53,48,86,68,49,30.12,30.06,30.01,10,7,4,8,3,23,0.00,3,,102
2012-11-22,76,65,53,56,51,48,86,66,46,30.12,30.07,30.02,10,6,2,8,1,13,0.00,3,,187
2012-11-23,81,68,54,56,53,51,93,66,39,30.16,30.11,30.05,6,3,0,18,2,33,0.00,4,Fog,239
2012-11-24,87,69,51,55,49,40,93,59,25,30.08,29.99,29.91,10,6,0,9,1,,0.00,0,Fog,255
2012-11-25,69,62,54,55,54,48,93,76,59,29.97,29.93,29.87,10,5,0,7,2,9,0.00,5,Fog,191
2012-11-26,70,65,59,54,52,49,78,66,53,30.10,30.04,29.99,10,7,3,10,3,23,0.00,4,,183
2012-11-27,72,62,51,54,51,47,89,69,49,30.16,30.11,30.04,10,6,3,10,1,35,0.01,2,,224
2012-11-28,70,64,57,55,52,51,80,67,53,30.20,30.15,30.10,10,6,2,8,2,13,T,6,Rain,150
2012-11-29,67,64,60,61,58,54,87,83,78,30.22,30.17,30.13,10,3,1,8,4,25,0.27,8,Rain,105
2012-11-30,67,66,64,63,62,60,87,87,87,30.14,30.11,30.05,10,5,1,10,4,,0.28,8,Rain,168